createdAt,value
2017-02-15T00:05:39.397Z,0.52
2017-02-15T00:15:39.466Z,0.41
2017-02-15T00:25:39.409Z,0.07
2017-02-15T00:35:39.385Z,-0.08
2017-02-15T00:45:39.434Z,-0.04
2017-02-15T00:55:39.403Z,0.06
2017-02-15T01:05:39.363Z,0.1
2017-02-15T01:15:39.422Z,-0.24
2017-02-15T01:25:39.398Z,-0.27
2017-02-15T01:35:39.342Z,-0.24
2017-02-15T01:45:39.414Z,-0.24
2017-02-15T01:55:39.361Z,-0.34
2017-02-15T02:05:39.337Z,-0.48
2017-02-15T02:15:39.379Z,-0.57
2017-02-15T02:25:39.340Z,-0.68
2017-02-15T02:35:39.414Z,-0.65
2017-02-15T02:45:39.394Z,-0.42
2017-02-15T02:55:39.350Z,-0.41
2017-02-15T03:05:39.413Z,-0.33
2017-02-15T03:15:39.351Z,-0.42
2017-02-15T03:25:39.326Z,-0.55
2017-02-15T03:35:39.371Z,-0.5
2017-02-15T03:45:39.333Z,-0.48
2017-02-15T03:55:39.296Z,-0.55
2017-02-15T04:05:39.379Z,-0.63
2017-02-15T04:15:39.317Z,-0.59
2017-02-15T04:25:39.277Z,-0.75
2017-02-15T04:35:39.362Z,-0.95
2017-02-15T04:45:39.307Z,-0.91
2017-02-15T04:55:39.377Z,-1.02
2017-02-15T05:05:39.334Z,-1.06
2017-02-15T05:15:39.359Z,-1.05
2017-02-15T05:25:39.362Z,-1.23
2017-02-15T05:35:39.339Z,-1.38
2017-02-15T05:45:39.281Z,-1.27
2017-02-15T05:55:39.344Z,-1.35
2017-02-15T06:05:40.346Z,-1.23
2017-02-15T06:15:39.276Z,-1.35
2017-02-15T06:25:39.334Z,-1.24
2017-02-15T06:35:39.280Z,-1.18
2017-02-15T06:45:39.223Z,-1.2
2017-02-15T06:55:39.309Z,-1.13
2017-02-15T07:05:39.284Z,-1
2017-02-15T07:15:39.231Z,-0.81
2017-02-15T07:25:39.297Z,-0.54
2017-02-15T07:35:39.256Z,-0.23
2017-02-15T07:45:39.354Z,0.65
2017-02-15T07:55:39.268Z,0.83
2017-02-15T08:05:39.248Z,0.82
2017-02-15T08:15:39.301Z,1.14
2017-02-15T08:25:39.281Z,1.57
2017-02-15T08:35:39.244Z,1.98
2017-02-15T08:45:39.316Z,2.52
2017-02-15T08:55:41.435Z,3
2017-02-15T09:05:39.649Z,3.7
2017-02-15T09:15:39.257Z,4.14
2017-02-15T09:25:39.245Z,4.72
2017-02-15T09:35:39.289Z,4.99
2017-02-15T09:45:39.425Z,5.43
2017-02-15T09:55:39.173Z,5.96
2017-02-15T10:05:39.177Z,6.54
2017-02-15T10:15:39.215Z,6.95
2017-02-15T10:25:39.176Z,7.34
2017-02-15T10:35:39.211Z,7.85
2017-02-15T10:45:39.174Z,8.07
2017-02-15T10:55:39.176Z,8.5
2017-02-15T11:05:39.380Z,8.71
2017-02-15T11:15:39.178Z,9.16
2017-02-15T11:25:39.164Z,9.58
2017-02-15T11:35:39.223Z,9.79
2017-02-15T11:45:39.150Z,10.22
2017-02-15T11:55:39.305Z,10.62
2017-02-15T12:05:39.155Z,10.99
2017-02-15T12:15:39.179Z,11.21
2017-02-15T12:25:39.161Z,11.47
2017-02-15T12:35:39.191Z,11.77
2017-02-15T12:45:39.189Z,12.13
2017-02-15T12:55:39.215Z,12.21
2017-02-15T13:05:39.161Z,12.6
2017-02-15T13:15:39.172Z,12.7
2017-02-15T13:25:39.252Z,12.71
2017-02-15T13:35:39.142Z,12.92
2017-02-15T13:45:39.162Z,12.87
2017-02-15T13:55:39.154Z,12.89
2017-02-15T14:05:39.728Z,13.02
2017-02-15T14:15:39.155Z,13.03
2017-02-15T14:25:39.184Z,13.06
2017-02-15T14:35:51.333Z,13.83
2017-02-15T14:45:44.155Z,13.69
2017-02-15T14:55:44.469Z,13.7
2017-02-15T15:05:52.143Z,13.38
2017-02-15T15:16:09.176Z,13.27
2017-02-15T15:35:52.272Z,12.85
2017-02-15T15:55:51.051Z,13.2
2017-02-15T16:15:43.851Z,12.29
2017-02-15T16:36:03.206Z,11.31
2017-02-15T16:45:49.972Z,10.83
2017-02-15T16:55:54.758Z,10.36
2017-02-15T17:25:42.263Z,9.13
2017-02-15T18:26:12.642Z,8.65
2017-02-15T19:05:52.085Z,8.18
2017-02-15T19:16:12.363Z,8.03
2017-02-15T19:26:00.934Z,7.96
2017-02-15T19:45:56.815Z,7.22
2017-02-15T20:06:04.199Z,6.76
2017-02-15T20:25:45.175Z,6.47
2017-02-15T21:25:51.297Z,7.17
2017-02-15T21:45:39.361Z,7.44
2017-02-15T21:56:05.008Z,7.52
2017-02-15T22:05:50.491Z,7.77
2017-02-15T22:15:41.723Z,7.78
2017-02-15T22:25:47.979Z,7.84
2017-02-15T22:35:39.643Z,7.79
2017-02-15T22:46:01.201Z,7.89
2017-02-15T22:55:40.400Z,7.85
2017-02-15T23:05:39.446Z,7.72
2017-02-15T23:15:39.494Z,7.44
2017-02-15T23:25:39.454Z,6.94
2017-02-15T23:35:39.432Z,6.77
2017-02-15T23:45:39.463Z,6.58
2017-02-15T23:55:39.538Z,6.38
